Time;durP1;ratioP1;P1;durP2;ratioP2;P2;SDS_P1;SDS_P2;PMS_P1;PMS_P2;Temp;Humidity;BMP_temperature;BMP_pressure;BME280_temperature;BME280_humidity;BME280_pressure;Samples;Min_cycle;Max_cycle;Signal;HPM_P1;HPM_P2
2022/06/23 00:01:44;;;;;;;2.85;2.13;;;;;;;24.41;44.39;101538.16;4979935;28;20053;-81
2022/06/23 00:04:15;;;;;;;3.75;2.10;;;;;;;24.46;44.22;101537.59;4976816;28;20476;-82
2022/06/23 00:06:51;;;;;;;1.83;1.67;;;;;;;24.43;44.24;101534.50;4979762;28;20046;-82
2022/06/23 00:09:36;;;;;;;2.15;1.95;;;;;;;24.53;44.05;101542.97;4975426;28;20452;-82
2022/06/23 00:12:17;;;;;;;2.03;1.88;;;;;;;24.41;44.21;101532.84;4977004;28;20054;-82
2022/06/23 00:14:43;;;;;;;2.03;1.80;;;;;;;24.45;44.29;101527.97;4974291;28;20126;-82
2022/06/23 00:17:34;;;;;;;1.80;1.70;;;;;;;24.40;44.32;101527.72;4981056;28;20050;-82
2022/06/23 00:20:09;;;;;;;1.80;1.70;;;;;;;24.44;44.34;101528.16;4981268;28;20046;-82
2022/06/23 00:22:40;;;;;;;2.53;1.85;;;;;;;24.40;44.20;101528.53;4977414;28;20053;-82
2022/06/23 00:25:07;;;;;;;2.47;1.88;;;;;;;24.43;44.27;101530.00;4973243;28;20038;-82
2022/06/23 00:27:38;;;;;;;1.85;1.60;;;;;;;24.44;44.12;101522.84;4986120;28;20085;-81
2022/06/23 00:30:21;;;;;;;2.20;1.80;;;;;;;24.43;43.61;101519.34;4979476;28;20144;-82
2022/06/23 00:32:46;;;;;;;2.13;1.95;;;;;;;24.35;44.15;101522.97;4978141;28;20510;-82
2022/06/23 00:35:18;;;;;;;1.70;1.60;;;;;;;24.45;44.10;101538.63;4981494;28;20050;-82
2022/06/23 00:37:47;;;;;;;1.83;1.65;;;;;;;24.38;44.36;101532.41;4980332;28;20937;-82
2022/06/23 00:40:14;;;;;;;2.13;1.80;;;;;;;24.38;44.12;101525.25;4977849;28;20453;-83
2022/06/23 00:43:02;;;;;;;2.17;1.95;;;;;;;24.44;44.02;101525.50;4978922;28;20722;-82
2022/06/23 00:45:32;;;;;;;2.95;1.80;;;;;;;24.34;44.19;101509.84;4980265;28;20042;-83
2022/06/23 00:48:16;;;;;;;2.40;1.80;;;;;;;24.41;44.12;101526.69;4978453;28;20141;-82
2022/06/23 00:50:56;;;;;;;2.08;1.85;;;;;;;24.35;44.08;101517.66;4978685;28;20038;-83
2022/06/23 00:53:30;;;;;;;2.17;1.80;;;;;;;24.33;44.25;101516.19;4980931;28;20042;-82
2022/06/23 00:56:00;;;;;;;1.85;1.60;;;;;;;24.33;44.24;101524.19;4981101;28;20066;-82
2022/06/23 00:58:47;;;;;;;2.10;1.90;;;;;;;24.33;44.13;101526.84;4978911;28;20547;-82
2022/06/23 01:01:35;;;;;;;2.00;1.80;;;;;;;24.32;44.17;101522.53;4978817;28;20042;-81
2022/06/23 01:04:17;;;;;;;1.92;1.75;;;;;;;24.29;44.17;101514.94;4968652;28;20058;-82
2022/06/23 01:06:52;;;;;;;1.80;1.63;;;;;;;24.31;44.18;101513.72;4978828;28;20042;-82
2022/06/23 01:09:36;;;;;;;2.10;1.90;;;;;;;24.30;44.07;101516.59;4982374;28;20498;-82
2022/06/23 01:12:32;;;;;;;2.58;2.00;;;;;;;24.33;44.25;101519.69;4981595;28;20441;-82
2022/06/23 01:15:05;;;;;;;2.13;1.85;;;;;;;24.33;44.13;101518.84;4978514;28;20034;-82
2022/06/23 01:17:41;;;;;;;2.17;1.85;;;;;;;24.37;44.19;101520.94;4982553;28;20049;-82
2022/06/23 01:20:31;;;;;;;2.20;2.00;;;;;;;24.34;44.15;101517.84;4980830;28;20610;-82
2022/06/23 01:23:24;;;;;;;2.45;2.17;;;;;;;24.32;44.13;101515.38;4982675;28;20031;-82
2022/06/23 01:26:11;;;;;;;1.75;1.65;;;;;;;24.34;43.94;101508.00;4978513;28;20097;-82
2022/06/23 01:28:41;;;;;;;2.22;2.03;;;;;;;24.32;44.20;101498.59;4977554;28;20047;-82
2022/06/23 01:31:23;;;;;;;1.90;1.73;;;;;;;24.40;43.90;101503.75;4978137;28;20121;-83
2022/06/23 01:34:13;;;;;;;2.17;1.80;;;;;;;24.31;44.19;101510.25;4978339;28;20042;-83
2022/06/23 01:36:43;;;;;;;2.85;1.98;;;;;;;24.36;44.15;101518.47;4977453;28;20073;-83
2022/06/23 01:39:24;;;;;;;2.20;2.00;;;;;;;24.28;44.16;101505.28;4982938;28;20046;-83
2022/06/23 01:42:22;;;;;;;1.85;1.70;;;;;;;24.31;44.12;101504.94;4982394;28;20048;-83
2022/06/23 01:44:58;;;;;;;2.53;1.98;;;;;;;24.32;44.02;101501.25;4979411;28;22097;-83
2022/06/23 01:48:01;;;;;;;2.17;1.63;;;;;;;24.25;44.20;101501.16;4978915;28;20046;-83
2022/06/23 01:50:41;;;;;;;1.80;1.70;;;;;;;24.25;44.10;101492.38;4981661;28;20048;-82
2022/06/23 01:53:29;;;;;;;2.25;2.05;;;;;;;24.24;44.15;101488.88;4979302;28;20034;-83
2022/06/23 01:56:06;;;;;;;1.70;1.60;;;;;;;24.28;43.97;101481.31;4980170;28;20530;-83
2022/06/23 01:58:42;;;;;;;1.70;1.60;;;;;;;24.33;43.93;101486.91;4979805;28;20131;-82
2022/06/23 02:01:15;;;;;;;1.90;1.70;;;;;;;24.25;43.95;101490.53;4977922;28;20846;-83
2022/06/23 02:03:43;;;;;;;2.47;2.20;;;;;;;24.13;44.36;101488.56;4980161;28;20667;-83
2022/06/23 02:06:20;;;;;;;2.03;1.65;;;;;;;24.20;44.31;101489.44;4992468;28;20042;-83
2022/06/23 02:08:48;;;;;;;3.20;1.85;;;;;;;24.23;44.11;101491.72;4982993;28;20046;-83
2022/06/23 02:11:14;;;;;;;1.63;1.50;;;;;;;24.20;44.24;101481.44;4979412;28;20037;-82
2022/06/23 02:14:08;;;;;;;1.63;1.52;;;;;;;24.16;44.09;101472.22;4981689;28;20722;-82
2022/06/23 02:16:48;;;;;;;1.75;1.65;;;;;;;24.21;44.15;101469.78;4978487;28;20495;-83
2022/06/23 02:19:24;;;;;;;2.05;1.80;;;;;;;24.21;44.09;101478.59;4980828;28;20050;-83
2022/06/23 02:21:56;;;;;;;1.90;1.70;;;;;;;24.18;44.19;101470.19;4979081;28;20053;-83
2022/06/23 02:24:29;;;;;;;2.45;1.65;;;;;;;24.19;44.00;101474.50;4975742;28;20081;-83
2022/06/23 02:27:07;;;;;;;1.90;1.80;;;;;;;24.20;44.13;101463.66;4977913;28;20042;-82
2022/06/23 02:29:43;;;;;;;2.28;2.08;;;;;;;24.19;44.17;101456.69;4976711;28;20046;-83
2022/06/23 02:32:44;;;;;;;2.33;1.70;;;;;;;24.19;44.19;101458.53;4992785;28;20031;-82
2022/06/23 02:35:30;;;;;;;1.92;1.80;;;;;;;24.15;44.16;101458.09;4981195;28;20061;-82
2022/06/23 02:38:12;;;;;;;1.75;1.63;;;;;;;24.11;44.15;101460.31;4976429;28;20154;-83
2022/06/23 02:40:42;;;;;;;1.80;1.70;;;;;;;24.19;44.09;101467.31;4979157;28;20042;-82
2022/06/23 02:43:09;;;;;;;1.65;1.52;;;;;;;24.19;43.99;101467.31;4978544;28;20061;-82
2022/06/23 02:45:53;;;;;;;1.90;1.80;;;;;;;24.15;44.14;101468.72;4978921;28;21028;-82
2022/06/23 02:48:27;;;;;;;1.88;1.75;;;;;;;24.20;44.11;101468.16;4976094;28;20034;-82
2022/06/23 02:51:11;;;;;;;2.38;2.17;;;;;;;24.17;44.11;101472.03;4977289;28;20038;-83
2022/06/23 02:53:36;;;;;;;2.03;1.83;;;;;;;24.14;44.08;101474.25;4982111;28;20046;-82
2022/06/23 02:56:20;;;;;;;2.00;1.73;;;;;;;24.17;43.95;101463.22;4991187;28;20038;-83
2022/06/23 02:58:54;;;;;;;1.90;1.77;;;;;;;24.18;44.07;101460.34;4979581;28;20507;-82
2022/06/23 03:01:34;;;;;;;2.42;1.70;;;;;;;24.19;43.92;101475.31;4979312;28;20046;-82
2022/06/23 03:04:00;;;;;;;;;;;;;;;24.13;44.01;101476.09;4980024;28;20046;-82
2022/06/23 03:06:51;;;;;;;1.75;1.65;;;;;;;24.09;44.15;101470.34;4977486;28;20295;-82
2022/06/23 03:09:26;;;;;;;2.20;1.90;;;;;;;24.12;44.13;101463.81;4976782;28;21554;-82
2022/06/23 03:12:14;;;;;;;2.33;1.95;;;;;;;24.16;44.12;101464.22;4989165;28;20046;-82
2022/06/23 03:15:12;;;;;;;1.95;1.75;;;;;;;24.13;44.04;101464.63;4980555;28;20044;-83
2022/06/23 03:17:49;;;;;;;2.42;1.90;;;;;;;24.07;44.14;101463.56;4963355;28;20089;-82
2022/06/23 03:20:41;;;;;;;2.95;2.13;;;;;;;24.16;44.00;101456.25;4975297;28;20042;-82
2022/06/23 03:23:20;;;;;;;2.42;2.00;;;;;;;24.03;44.29;101463.09;4978003;28;20040;-82
2022/06/23 03:26:14;;;;;;;2.72;1.98;;;;;;;24.10;44.08;101461.34;4976342;28;20073;-82
2022/06/23 03:28:43;;;;;;;2.20;1.80;;;;;;;24.05;44.02;101461.06;4977117;28;20365;-82
2022/06/23 03:31:21;;;;;;;;;;;;;;;24.14;43.97;101461.78;4976501;28;20374;-82
2022/06/23 03:33:53;;;;;;;1.88;1.70;;;;;;;24.08;44.12;101458.06;4974977;28;20720;-82
2022/06/23 03:36:25;;;;;;;2.00;1.80;;;;;;;24.09;44.21;101458.88;4976665;28;20122;-83
2022/06/23 03:42:03;;;;;;;2.13;1.92;;;;;;;24.14;44.01;101463.59;4975575;28;20539;-83
2022/06/23 03:44:40;;;;;;;2.20;2.00;;;;;;;24.08;43.97;101467.88;4975612;28;20080;-82
2022/06/23 03:47:34;;;;;;;1.90;1.70;;;;;;;24.05;44.05;101471.72;4977460;28;20045;-82
2022/06/23 03:50:22;;;;;;;3.00;1.98;;;;;;;24.08;44.09;101471.34;4959870;28;20534;-83
2022/06/23 03:53:01;;;;;;;1.88;1.73;;;;;;;23.96;44.12;101459.56;4975534;28;21048;-83
2022/06/23 03:55:36;;;;;;;1.75;1.65;;;;;;;24.12;43.80;101471.78;4980817;28;20038;-83
2022/06/23 03:58:13;;;;;;;1.88;1.77;;;;;;;24.06;44.06;101477.88;4979521;28;20045;-83
2022/06/23 04:00:45;;;;;;;2.10;1.90;;;;;;;24.09;44.02;101472.19;4976247;28;20096;-83
2022/06/23 04:03:22;;;;;;;1.77;1.67;;;;;;;24.00;44.14;101465.34;4976178;28;20046;-82
2022/06/23 04:05:57;;;;;;;1.77;1.63;;;;;;;24.04;43.93;101472.72;4977882;28;20346;-82
2022/06/23 04:08:30;;;;;;;2.42;1.80;;;;;;;24.06;43.79;101472.56;4976004;28;20065;-82
2022/06/23 04:11:43;;;;;;;1.90;1.70;;;;;;;24.02;43.84;101468.63;4977511;28;20042;-82
2022/06/23 04:13:45;;;;;;;1.90;1.70;;;;;;;24.11;43.93;101464.81;4991053;28;20157;-83
2022/06/23 04:16:12;;;;;;;1.77;1.67;;;;;;;24.05;43.97;101468.22;4979129;28;20045;-83
2022/06/23 04:18:43;;;;;;;1.77;1.65;;;;;;;24.05;44.17;101465.56;4974698;28;20046;-83
2022/06/23 04:21:28;;;;;;;1.92;1.83;;;;;;;24.01;44.15;101459.00;4973227;28;22434;-82
2022/06/23 04:24:03;;;;;;;2.05;1.85;;;;;;;24.09;44.04;101461.53;4973201;28;20078;-82
2022/06/23 04:26:41;;;;;;;2.00;1.80;;;;;;;24.10;43.88;101463.19;4979388;28;20038;-82
2022/06/23 04:29:41;;;;;;;1.83;1.73;;;;;;;24.07;44.13;101453.75;4975859;28;20043;-82
2022/06/23 04:32:08;;;;;;;1.98;1.80;;;;;;;24.07;44.06;101447.59;4937235;28;20054;-82
2022/06/23 04:34:49;;;;;;;1.88;1.67;;;;;;;24.07;43.85;101440.44;4977882;28;20038;-82
2022/06/23 04:37:59;;;;;;;2.35;2.00;;;;;;;24.00;43.87;101441.38;4976955;28;20081;-82
2022/06/23 04:40:34;;;;;;;1.85;1.75;;;;;;;24.00;44.01;101444.06;4974508;28;20465;-83
2022/06/23 04:43:12;;;;;;;2.03;1.83;;;;;;;23.98;44.03;101443.44;4975717;28;20145;-81
2022/06/23 04:46:01;;;;;;;1.95;1.80;;;;;;;24.06;43.95;101436.13;4979982;28;20042;-82
2022/06/23 04:48:30;;;;;;;1.92;1.73;;;;;;;23.98;44.17;101430.13;4978500;28;20034;-83
2022/06/23 04:51:01;;;;;;;2.27;2.07;;;;;;;24.03;43.99;101435.69;4976901;28;20068;-82
2022/06/23 04:53:54;;;;;;;3.53;2.10;;;;;;;24.00;44.03;101446.72;4975099;28;20038;-83
2022/06/23 04:56:40;;;;;;;2.08;1.88;;;;;;;23.99;44.07;101440.56;4976891;28;20138;-82
2022/06/23 04:59:42;;;;;;;2.38;1.92;;;;;;;24.04;44.12;101445.31;4974218;28;20065;-82
2022/06/23 05:02:23;;;;;;;2.35;1.98;;;;;;;24.01;43.96;101443.84;4976176;28;20038;-82
2022/06/23 05:05:07;;;;;;;3.65;1.90;;;;;;;23.93;44.26;101446.66;4977078;28;20903;-82
2022/06/23 05:07:41;;;;;;;2.70;2.30;;;;;;;24.01;44.14;101443.84;4979036;28;20542;-82
2022/06/23 05:10:26;;;;;;;2.92;1.90;;;;;;;23.95;44.12;101443.81;4977871;28;20782;-82
2022/06/23 05:12:59;;;;;;;2.28;1.90;;;;;;;24.00;44.11;101439.56;4974133;28;20063;-81
2022/06/23 05:15:32;;;;;;;2.50;1.92;;;;;;;23.96;44.17;101434.81;4982423;28;20042;-82
2022/06/23 05:18:03;;;;;;;2.72;1.98;;;;;;;24.00;44.14;101436.91;4978367;28;20053;-81
2022/06/23 05:20:52;;;;;;;2.13;1.88;;;;;;;23.94;44.27;101443.00;4978775;28;20050;-82
2022/06/23 05:23:24;;;;;;;2.13;1.80;;;;;;;23.99;44.02;101442.41;4980928;28;20034;-82
2022/06/23 05:25:53;;;;;;;2.80;1.92;;;;;;;23.97;44.20;101442.59;4994869;28;20084;-82
2022/06/23 05:28:24;;;;;;;;;;;;;;;23.91;44.12;101442.56;4982063;28;20054;-83
2022/06/23 05:30:55;;;;;;;3.20;2.20;;;;;;;24.01;44.14;101440.38;4979721;28;19949;-83
2022/06/23 05:33:27;;;;;;;2.67;2.38;;;;;;;23.94;44.17;101442.16;4979417;28;20768;-82
2022/06/23 05:36:05;;;;;;;2.17;1.90;;;;;;;23.96;44.39;101438.31;4976338;28;20038;-82
2022/06/23 05:38:55;;;;;;;2.75;2.20;;;;;;;24.01;43.98;101437.72;4998621;28;20057;-83
2022/06/23 05:41:35;;;;;;;2.40;2.00;;;;;;;24.03;44.11;101435.69;4993563;28;20476;-82
2022/06/23 05:44:07;;;;;;;3.13;2.13;;;;;;;23.90;44.17;101436.41;4980325;28;20042;-83
2022/06/23 05:46:36;;;;;;;3.10;1.85;;;;;;;23.95;44.17;101438.50;4982192;28;20160;-83
2022/06/23 05:49:16;;;;;;;3.03;2.10;;;;;;;23.92;44.30;101438.88;4980503;28;20042;-82
2022/06/23 05:51:47;;;;;;;;;;;;;;;23.94;44.12;101434.19;4980334;28;21090;-83
2022/06/23 05:54:27;;;;;;;2.10;1.85;;;;;;;23.90;44.29;101424.97;4977428;28;20332;-83
2022/06/23 05:57:05;;;;;;;2.53;2.10;;;;;;;23.93;44.30;101429.88;4981952;28;20563;-82
2022/06/23 05:59:57;;;;;;;2.40;2.00;;;;;;;23.95;44.13;101427.84;4978775;28;20706;-82
2022/06/23 06:02:51;;;;;;;2.22;2.00;;;;;;;23.98;44.24;101420.31;4971246;28;20046;-82
2022/06/23 06:05:38;;;;;;;2.20;1.92;;;;;;;23.96;44.33;101430.31;4980104;28;20042;-83
2022/06/23 06:08:17;;;;;;;2.08;1.88;;;;;;;23.92;44.22;101422.94;4979123;28;20035;-82
2022/06/23 06:10:43;;;;;;;3.03;1.98;;;;;;;23.95;44.45;101423.34;4979008;28;20034;-82
2022/06/23 06:13:22;;;;;;;2.33;2.13;;;;;;;23.97;44.22;101421.31;4983832;28;21763;-83
2022/06/23 06:15:52;;;;;;;2.25;2.00;;;;;;;23.97;44.17;101420.50;4979047;28;20137;-83
2022/06/23 06:18:26;;;;;;;3.25;2.35;;;;;;;23.93;44.25;101419.25;4983220;28;20114;-82
2022/06/23 06:20:55;;;;;;;2.33;2.10;;;;;;;23.90;44.45;101424.97;4983614;28;20041;-82
2022/06/23 06:23:46;;;;;;;2.05;1.85;;;;;;;23.93;44.28;101409.44;4979254;28;20137;-82
2022/06/23 06:26:15;;;;;;;2.28;1.90;;;;;;;23.96;44.27;101406.38;4984483;28;20094;-84
2022/06/23 06:28:41;;;;;;;2.72;2.00;;;;;;;24.00;44.27;101410.28;4979475;28;20377;-84
2022/06/23 06:31:28;;;;;;;2.40;2.20;;;;;;;24.03;44.30;101407.25;4983067;28;20046;-84
2022/06/23 06:34:02;;;;;;;2.35;2.10;;;;;;;23.95;44.32;101402.06;4983109;28;20715;-84
2022/06/23 06:36:44;;;;;;;2.30;2.10;;;;;;;23.97;44.20;101408.03;4983779;28;20076;-84
2022/06/23 06:39:14;;;;;;;3.13;2.03;;;;;;;24.05;44.06;101404.38;4979003;28;20127;-79
2022/06/23 06:41:43;;;;;;;2.85;2.20;;;;;;;24.05;44.12;101409.69;4980946;28;20046;-81
2022/06/23 06:44:10;;;;;;;2.45;2.13;;;;;;;24.01;44.24;101413.78;4978995;28;20101;-82
2022/06/23 06:46:38;;;;;;;2.13;1.92;;;;;;;24.04;44.27;101421.34;4976092;28;20728;-81
2022/06/23 06:49:05;;;;;;;2.45;2.10;;;;;;;24.04;44.16;101416.84;4979990;28;20045;-81
2022/06/23 06:51:32;;;;;;;2.20;2.00;;;;;;;24.10;44.10;101416.09;5000266;28;20112;-81
2022/06/23 06:54:06;;;;;;;3.15;2.10;;;;;;;24.14;44.17;101421.03;4981596;28;20514;-82
2022/06/23 06:56:42;;;;;;;2.50;1.95;;;;;;;24.16;44.13;101427.81;4978075;28;20046;-82
2022/06/23 06:59:51;;;;;;;3.40;2.20;;;;;;;24.10;44.21;101426.75;4980461;28;20049;-82
2022/06/23 07:02:25;;;;;;;2.28;1.90;;;;;;;24.09;44.10;101421.63;4923534;29;20058;-83
2022/06/23 07:05:09;;;;;;;2.28;2.08;;;;;;;24.16;44.15;101433.13;4910886;29;20628;-83
2022/06/23 07:07:40;;;;;;;2.47;2.22;;;;;;;24.13;44.09;101425.53;4961134;28;20050;-82
2022/06/23 07:10:22;;;;;;;2.80;2.20;;;;;;;24.10;44.11;101412.63;4979182;28;20042;-81
2022/06/23 07:12:53;;;;;;;2.88;2.20;;;;;;;24.19;44.34;101421.25;4980471;28;20045;-82
2022/06/23 07:15:24;;;;;;;2.63;2.05;;;;;;;24.15;44.31;101414.69;4978486;28;20117;-82
2022/06/23 07:17:56;;;;;;;2.40;2.10;;;;;;;24.20;44.40;101417.59;4978764;28;20046;-82
2022/06/23 07:20:40;;;;;;;2.72;2.20;;;;;;;24.38;44.07;101416.09;4978308;28;20034;-82
2022/06/23 07:23:23;;;;;;;2.28;2.08;;;;;;;24.17;44.54;101418.81;4984349;28;20034;-81
2022/06/23 07:25:53;;;;;;;2.45;2.03;;;;;;;24.19;44.75;101421.25;4981058;28;20412;-81
2022/06/23 07:28:30;;;;;;;3.42;2.15;;;;;;;24.22;44.63;101416.38;4978674;28;20173;-82
2022/06/23 07:31:06;;;;;;;2.30;2.10;;;;;;;24.24;44.78;101421.53;4993350;28;20038;-81
2022/06/23 07:33:46;;;;;;;2.47;1.98;;;;;;;24.22;44.37;101412.88;4983142;28;20038;-81
2022/06/23 07:36:19;;;;;;;4.13;2.78;;;;;;;24.28;44.41;101414.78;4980264;28;20169;-81
2022/06/23 07:39:11;;;;;;;2.17;1.98;;;;;;;24.32;44.49;101410.75;4979653;28;20034;-81
2022/06/23 07:41:46;;;;;;;3.55;2.30;;;;;;;24.33;44.37;101407.88;4981630;28;20089;-81
2022/06/23 07:44:33;;;;;;;2.25;2.05;;;;;;;24.32;44.48;101403.59;4982569;28;20056;-80
2022/06/23 07:47:01;;;;;;;3.35;2.33;;;;;;;24.33;44.48;101399.09;4978614;28;20793;-80
2022/06/23 07:49:27;;;;;;;3.05;2.10;;;;;;;24.30;44.54;101399.47;4981113;28;20049;-80
2022/06/23 07:51:56;;;;;;;2.67;2.33;;;;;;;24.27;44.81;101389.19;4979866;28;20401;-81
2022/06/23 07:54:24;;;;;;;3.17;2.50;;;;;;;24.35;44.55;101391.72;4987060;28;20402;-81
2022/06/23 07:56:51;;;;;;;3.28;2.15;;;;;;;24.44;44.35;101395.06;4984214;28;20046;-80
2022/06/23 07:59:20;;;;;;;1.80;1.70;;;;;;;24.37;44.44;101392.34;4979729;28;20516;-81
2022/06/23 08:01:58;;;;;;;2.47;2.20;;;;;;;24.43;44.42;101396.91;4982404;28;20042;-81
2022/06/23 08:04:42;;;;;;;2.38;2.08;;;;;;;24.41;44.75;101394.41;4980890;28;20062;-81
2022/06/23 08:07:11;;;;;;;3.85;1.95;;;;;;;24.49;44.34;101384.63;4978745;28;20038;-91
2022/06/23 08:09:42;;;;;;;5.63;3.00;;;;;;;24.69;46.02;101385.53;4951923;28;20544;-78
2022/06/23 08:18:01;;;;;;;5.65;3.30;;;;;;;25.83;42.98;101380.25;4989758;28;20041;-88
2022/06/23 08:20:31;;;;;;;7.28;3.50;;;;;;;26.00;42.75;101378.00;4989992;28;20513;-83
2022/06/23 08:22:58;;;;;;;;;;;;;;;26.14;42.62;101387.63;4947992;28;20038;-81
2022/06/23 08:25:24;;;;;;;5.45;3.60;;;;;;;26.22;42.97;101376.75;4968737;28;19914;-85
2022/06/23 08:27:55;;;;;;;5.72;3.75;;;;;;;26.28;42.88;101385.75;4964201;28;20058;-85
2022/06/23 08:30:23;;;;;;;6.63;3.72;;;;;;;26.34;42.91;101371.56;4972002;28;20050;-85
2022/06/23 08:32:51;;;;;;;9.20;3.85;;;;;;;26.44;42.57;101377.31;4988122;28;20127;-85
2022/06/23 08:35:29;;;;;;;;;;;;;;;26.50;42.51;101374.63;4944646;28;20727;-81
2022/06/23 08:37:54;;;;;;;;;;;;;;;26.55;42.77;101367.81;4979998;28;20016;-85
2022/06/23 08:40:24;;;;;;;;;;;;;;;26.64;42.60;101366.56;4957024;28;19929;-86
2022/06/23 08:43:09;;;;;;;;;;;;;;;26.66;42.39;101359.16;4983633;28;19914;-85
2022/06/23 08:45:53;;;;;;;;;;;;;;;26.72;42.70;101350.28;4955609;28;20060;-87
2022/06/23 08:48:23;;;;;;;;;;;;;;;26.77;42.55;101353.16;4970513;28;21731;-88
2022/06/23 08:51:07;;;;;;;;;;;;;;;26.84;42.46;101359.28;4929169;28;19921;-84
2022/06/23 08:53:52;;;;;;;;;;;;;;;26.89;42.26;101350.59;5002408;28;20044;-82
2022/06/23 08:56:23;;;;;;;;;;;;;;;26.93;42.22;101341.97;4957888;28;19914;-82
2022/06/23 08:58:56;;;;;;;;;;;;;;;26.97;42.42;101340.50;4982521;28;19985;-82
2022/06/23 09:01:26;;;;;;;;;;;;;;;27.00;41.95;101344.63;4980778;28;20013;-83
2022/06/23 09:03:51;;;;;;;;;;;;;;;27.04;41.80;101351.97;4972649;28;19960;-84
2022/06/23 09:06:37;;;;;;;;;;;;;;;27.07;41.72;101353.41;4990831;28;19992;-82
2022/06/23 09:09:05;;;;;;;;;;;;;;;27.11;41.77;101349.28;4923684;28;19917;-83
2022/06/23 09:11:57;;;;;;;;;;;;;;;27.14;42.01;101351.53;4989796;28;19918;-88
2022/06/23 09:14:35;;;;;;;;;;;;;;;27.19;41.67;101349.00;4913650;28;20414;-86
2022/06/23 09:17:12;;;;;;;;;;;;;;;27.20;41.85;101355.19;4999246;28;19925;-84
2022/06/23 09:19:46;;;;;;;;;;;;;;;27.21;41.50;101343.44;4975734;28;19921;-91
2022/06/23 09:22:31;;;;;;;;;;;;;;;27.29;41.83;101341.34;4983923;28;20398;-87
2022/06/23 09:24:59;;;;;;;;;;;;;;;27.36;41.48;101333.25;4937166;28;19961;-87
2022/06/23 09:27:42;;;;;;;;;;;;;;;27.38;41.13;101331.19;4987418;28;20332;-88
2022/06/23 09:30:15;;;;;;;;;;;;;;;27.39;41.35;101339.00;4946665;28;19972;-87
2022/06/23 09:32:49;;;;;;;;;;;;;;;27.43;41.46;101325.19;4992407;28;19961;-83
2022/06/23 09:35:33;;;;;;;;;;;;;;;27.46;41.03;101328.22;4951074;28;19913;-85
2022/06/23 09:38:05;;;;;;;;;;;;;;;27.46;41.36;101336.25;4983148;28;21240;-85
2022/06/23 09:40:37;;;;;;;;;;;;;;;27.51;40.71;101328.41;4942981;28;19957;-87
2022/06/23 09:43:14;;;;;;;;;;;;;;;27.54;41.03;101322.63;4987039;28;19968;-84
2022/06/23 09:45:59;;;;;;;;;;;;;;;27.60;40.34;101320.91;4964671;28;19918;-86
2022/06/23 09:48:36;;;;;;;;;;;;;;;27.57;40.41;101319.50;4975151;28;19918;-86
2022/06/23 09:51:09;;;;;;;;;;;;;;;27.60;40.47;101318.22;5000000;28;19925;-87
2022/06/23 09:53:46;;;;;;;;;;;;;;;27.63;40.29;101315.16;4967435;28;19918;-84
2022/06/23 09:56:27;;;;;;;;;;;;;;;27.61;40.48;101309.16;4992482;28;20234;-85
2022/06/23 09:59:11;;;;;;;;;;;;;;;27.68;40.37;101309.97;4978374;28;19932;-87
2022/06/23 10:01:37;;;;;;;;;;;;;;;27.66;40.19;101312.88;4952831;28;19922;-84
2022/06/23 10:04:21;;;;;;;;;;;;;;;27.50;40.67;101308.06;4972639;28;20313;-83
2022/06/23 10:07:02;;;;;;;;;;;;;;;27.19;40.98;101322.28;4985917;28;19917;-85
2022/06/23 10:09:28;;;;;;;;;;;;;;;27.04;41.55;101319.91;4955928;28;19940;-86
2022/06/23 10:11:53;;;;;;;;;;;;;;;27.00;40.94;101317.88;4975857;28;20673;-83
2022/06/23 10:14:44;;;;;;;;;;;;;;;27.03;40.92;101317.47;4948257;28;20518;-81
2022/06/23 10:17:22;;;;;;;;;;;;;;;27.06;40.54;101314.34;4981356;28;19961;-82
2022/06/23 10:20:06;;;;;;;;;;;;;;;27.03;40.97;101318.28;4936570;28;19914;-83
2022/06/23 10:22:37;;;;;;;;;;;;;;;26.98;40.90;101315.41;4985237;28;19922;-83
2022/06/23 10:25:26;;;;;;;;;;;;;;;27.02;40.57;101311.28;4955051;28;20578;-84
2022/06/23 10:28:18;;;;;;;;;;;;;;;26.71;42.32;101306.72;4986540;28;19923;-85
2022/06/23 10:30:53;;;;;;;;;;;;;;;26.71;42.20;101308.56;4950368;28;19921;-85
2022/06/23 10:33:30;;;;;;;;;;;;;;;26.84;41.30;101302.34;4984934;28;19917;-85
2022/06/23 10:36:06;;;;;;;;;;;;;;;26.93;40.69;101309.91;4936332;28;19953;-85
2022/06/23 10:38:50;;;;;;;;;;;;;;;26.95;40.63;101299.81;4983618;28;20036;-83
2022/06/23 10:41:15;;;;;;;;;;;;;;;26.94;40.91;101295.50;4950318;28;19918;-86
2022/06/23 10:43:51;;;;;;;;;;;;;;;26.93;40.85;101290.34;4986676;28;19971;-85
2022/06/23 10:46:23;;;;;;;;;;;;;;;26.91;40.85;101290.56;4954052;28;19921;-86
2022/06/23 10:49:07;;;;;;;;;;;;;;;26.93;40.54;101282.31;4984452;28;19944;-86
2022/06/23 10:51:51;;;;;;;;;;;;;;;26.94;40.25;101281.31;4937196;28;21140;-87
2022/06/23 10:54:28;;;;;;;;;;;;;;;26.97;40.50;101278.22;4988646;28;19965;-86
2022/06/23 10:57:04;;;;;;;;;;;;;;;26.95;40.43;101277.59;4957644;28;19921;-86
2022/06/23 10:59:41;;;;;;;;;;;;;;;26.94;40.27;101271.44;4989267;28;20004;-87
2022/06/23 11:02:09;;;;;;;;;;;;;;;26.91;41.51;101274.53;4959332;28;19952;-88
2022/06/23 11:04:44;;;;;;;;;;;;;;;26.91;41.19;101263.03;4992111;28;19913;-87
2022/06/23 11:07:16;;;;;;;;;;;;;;;26.92;41.44;101264.66;4926209;28;19925;-87
2022/06/23 11:10:02;;;;;;;;;;;;;;;26.91;41.75;101265.69;4985898;28;19981;-88
2022/06/23 11:12:46;;;;;;;;;;;;;;;26.92;41.10;101261.97;4959034;28;20024;-88
2022/06/23 11:15:20;;;;;;;;;;;;;;;26.91;41.48;101255.81;4990993;28;19987;-86
2022/06/23 11:17:46;;;;;;;;;;;;;;;26.95;41.21;101257.03;4960085;28;19961;-86
2022/06/23 11:20:17;;;;;;;;;;;;;;;26.98;40.54;101248.59;4990105;28;20358;-86
2022/06/23 11:22:47;;;;;;;;;;;;;;;26.99;40.34;101246.72;4958666;28;19927;-87
2022/06/23 11:25:12;;;;;;;;;;;;;;;26.99;39.88;101244.06;4982037;28;20645;-87
2022/06/23 11:27:54;;;;;;;;;;;;;;;26.98;40.11;101248.59;4988158;28;19925;-88
2022/06/23 11:30:22;;;;;;;;;;;;;;;26.93;40.34;101239.56;4954326;28;20569;-86
2022/06/23 11:33:06;;;;;;;;;;;;;;;26.95;40.46;101240.19;4990277;28;20746;-86
2022/06/23 11:35:37;;;;;;;;;;;;;;;26.94;40.43;101233.22;4942176;28;20597;-86
2022/06/23 11:38:08;;;;;;;;;;;;;;;26.92;40.82;101232.59;4985654;28;19918;-86
2022/06/23 11:40:59;;;;;;;;;;;;;;;26.97;40.07;101224.75;4945462;28;19957;-87
2022/06/23 11:43:30;;;;;;;;;;;;;;;26.95;40.17;101233.00;5004626;28;20518;-86
2022/06/23 11:46:08;;;;;;;;;;;;;;;26.94;40.56;101230.53;4951965;28;19928;-86
2022/06/23 11:48:39;;;;;;;;;;;;;;;26.96;39.80;101231.13;4990023;28;20411;-86
2022/06/23 11:51:07;;;;;;;;;;;;;;;26.94;40.40;101219.84;4961722;28;20004;-87
2022/06/23 11:53:41;;;;;;;;;;;;;;;26.92;41.39;101220.03;4988320;28;19969;-86
2022/06/23 11:56:10;;;;;;;;;;;;;;;26.90;41.52;101211.44;4945574;28;19918;-86
2022/06/23 11:58:51;;;;;;;;;;;;;;;26.92;41.42;101211.22;4984502;28;19918;-87
2022/06/23 12:01:17;;;;;;;;;;;;;;;26.90;42.05;101211.44;4952373;28;20020;-86
2022/06/23 12:03:43;;;;;;;;;;;;;;;26.93;41.19;101196.81;4988875;28;20323;-86
2022/06/23 12:06:30;;;;;;;;;;;;;;;26.95;40.31;101200.94;4952326;28;19924;-86
2022/06/23 12:08:55;;;;;;;;;;;;;;;26.98;40.29;101200.47;4990868;28;19921;-86
2022/06/23 12:11:21;;;;;;;;;;;;;;;26.98;40.13;101197.00;4947690;28;19929;-86
2022/06/23 12:13:47;;;;;;;;;;;;;;;26.93;40.61;101200.31;4988228;28;19929;-86
2022/06/23 12:16:12;;;;;;;;;;;;;;;26.91;41.01;101198.88;4990241;28;19918;-87
2022/06/23 12:18:43;;;;;;;;;;;;;;;26.91;41.18;101193.53;4951141;28;21170;-86
2022/06/23 12:21:17;;;;;;;;;;;;;;;26.91;41.11;101188.19;4984465;28;19917;-87
2022/06/23 12:23:42;;;;;;;;;;;;;;;26.97;39.95;101195.34;4971230;28;19925;-86
2022/06/23 12:26:22;;;;;;;;;;;;;;;26.96;39.90;101191.06;4974975;28;19976;-87
2022/06/23 12:28:55;;;;;;;;;;;;;;;26.99;39.96;101187.94;4964065;28;19918;-86
2022/06/23 12:31:33;;;;;;;;;;;;;;;26.97;39.48;101173.97;4995349;28;19913;-87
2022/06/23 12:34:09;;;;;;;;;;;;;;;27.01;39.19;101180.53;4957824;28;19918;-87
2022/06/23 12:36:34;;;;;;;;;;;;;;;27.00;39.22;101176.25;4984784;28;20017;-86
2022/06/23 12:39:09;;;;;;;;;;;;;;;27.00;39.19;101179.72;4961668;28;19922;-87
2022/06/23 12:41:40;;;;;;;;;;;;;;;26.98;40.20;101175.63;5002963;28;19929;-85
2022/06/23 12:44:24;;;;;;;;;;;;;;;27.00;39.63;101178.91;4958984;28;19917;-86